Flight Track Log - Related Links

Times and Time Zones

All times are in EDT time to prevent confusion due to time zone crossing. See the FAW71 flight status page for this flight to view local times or setup timezone preferences in your user account.

Time Position Orientation Groundspeed Altitude Reporting Facility
EDT Latitude Longitude Course Direction KTS MPH feet Rate Location/Type
Tue 06:12:04 PM 38.9000 -77.6167 237° Southwest 261 300 4,900  Level Potomac TRACON
Tue 06:13:04 PM 38.8167 -77.6167 180° South 269 310 7,200 3,200 Climbing Potomac TRACON
Tue 06:14:04 PM 38.7500 -77.6000 169° South 277 319 11,300 4,187 Climbing Potomac TRACON
Tue 06:16:00 PM 38.5229 -77.5345 185° South  Level FlightAware Approximate
Tue 06:16:06 PM 38.5925 -77.5892 177° South 275 316 19,900  Level Washington Center
Tue 06:17:08 PM 38.5125 -77.6294 202° Southwest 285 328 20,000 49 Climbing Washington Center
Tue 06:18:08 PM 38.4483 -77.7206 228° Southwest 308 354 20,000  Level Washington Center
Tue 06:19:07 PM 38.3822 -77.8114 227° Southwest 336 387 20,000  Level Washington Center
Tue 06:20:07 PM 38.3203 -77.8889 224° Southwest 344 396 20,000  Level Washington Center
Tue 06:21:08 PM 38.2539 -77.9794 227° Southwest 349 402 20,000  Level Washington Center
Tue 06:22:06 PM 38.1894 -78.0672 227° Southwest 349 402 20,000  Level Washington Center
Tue 06:23:06 PM 38.1231 -78.1547 226° Southwest 349 402 20,000 -496 Level Washington Center
Tue 06:24:07 PM 38.0586 -78.2422 227° Southwest 349 402 19,000 -1,377 Descending Washington Center
Tue 06:25:08 PM 37.9875 -78.3397 227° Southwest 349 402 17,200 -1,650 Descending Washington Center
Tue 06:26:07 PM 37.9231 -78.4242 226° Southwest 343 395 15,700 -1,513 Descending Washington Center
Tue 06:27:07 PM 37.8606 -78.5061 226° Southwest 343 395 14,200 -1,450 Descending Washington Center
Tue 06:28:07 PM 37.8044 -78.5828 227° Southwest 343 395 12,800 -1,289 Descending Washington Center
Tue 06:29:08 PM 37.7397 -78.6669 226° Southwest 343 395 11,600 -1,311 Descending Washington Center
Tue 06:30:06 PM 37.6792 -78.7458 226° Southwest 338 389 10,200 -915 Descending Washington Center
Tue 06:31:06 PM 37.6167 -78.8272 226° Southwest 338 389 9,800 -1,041 Descending Washington Center
Tue 06:32:07 PM 37.5539 -78.9056 225° Southwest 308 354 8,100 -1,636 Descending Washington Center
Tue 06:33:07 PM 37.5019 -78.9742 226° Southwest 287 330 6,500 -1,770 Descending Washington Center
Tue 06:34:09 PM 37.4522 -79.0400 226° Southwest 275 316 4,500 -1,866 Descending Washington Center
Tue 06:35:06 PM 37.4003 -79.0975 221° Southwest 262 302 2,800 -1,109 Descending Washington Center
Tue 06:36:08 PM 37.3736 -79.1567 240° Southwest 229 264 2,300 -689 Descending Washington Center
Tue 06:37:08 PM 37.3453 -79.1917 224° Southwest 185 213 1,400 -694 Descending Washington Center
Tue 06:38:09 PM 37.3131 -79.2269 221° Southwest 151 174 900 6,407 Descending Washington Center
Tue 06:39:06 PM 37.2806 -79.2644 223° Southwest 151 174 14,000 13,789 Climbing Washington Center

Login

Don't have an account? Register now (free) for customized features, flight alerts, and more!